Time;durP1;ratioP1;P1;durP2;ratioP2;P2;SDS_P1;SDS_P2;PMS_P1;PMS_P2;Temp;Humidity;BMP_temperature;BMP_pressure;BME280_temperature;BME280_humidity;BME280_pressure;Samples;Min_cycle;Max_cycle;Signal;HPM_P1;HPM_P2
2021/12/05 00:26:46;;;;;;;15.30;6.10;;;22.80;52.60;;;;;;212501;1318;22609;-55
2021/12/05 00:32:15;;;;;;;10.40;5.30;;;22.80;52.30;;;;;;212612;1318;22625;-52
2021/12/05 01:13:24;;;;;;;;;;;;;;;;;;;;;
2021/12/05 01:18:30;;;;;;;9.60;5.80;;;22.30;52.70;;;;;;213871;1312;24374;-52
2021/12/05 01:24:39;;;;;;;10.40;5.20;;;22.20;52.20;;;;;;213896;1313;26411;-56
2021/12/05 01:30:07;;;;;;;9.70;6.00;;;22.20;52.90;;;;;;213807;1315;22585;-54
2021/12/05 02:40:34;;;;;;;7.70;4.90;;;23.70;47.90;;;;;;213467;1312;24451;-54
2021/12/05 02:45:59;;;;;;;8.90;5.20;;;23.80;47.90;;;;;;213297;1315;22593;-54
2021/12/05 02:51:54;;;;;;;;;;;23.80;47.50;;;;;;213389;1312;22539;-57
2021/12/05 03:03:32;;;;;;;7.60;4.50;;;23.80;47.40;;;;;;212827;1318;27081;-52
2021/12/05 03:09:29;;;;;;;8.60;4.70;;;23.90;47.90;;;;;;213985;1313;22587;-53
2021/12/05 03:15:04;;;;;;;7.90;4.70;;;23.80;47.30;;;;;;214397;1312;25537;-54
2021/12/05 03:20:26;;;;;;;7.40;4.20;;;23.90;47.30;;;;;;214159;1312;22612;-52
2021/12/05 03:25:52;;;;;;;6.90;4.50;;;23.90;47.00;;;;;;214238;1315;22676;-54
2021/12/05 03:31:16;;;;;;;8.80;5.30;;;24.10;46.80;;;;;;214067;1312;22716;-56
2021/12/05 03:36:38;;;;;;;8.70;4.60;;;24.20;46.60;;;;;;213913;1315;22585;-55
2021/12/05 03:42:32;;;;;;;6.50;4.40;;;24.20;46.40;;;;;;214175;1312;25578;-56
2021/12/05 03:48:14;;;;;;;6.80;4.50;;;24.20;46.40;;;;;;214252;1316;22648;-51
2021/12/05 03:54:01;;;;;;;7.40;4.80;;;24.10;46.50;;;;;;214084;1312;22556;-54
2021/12/05 03:59:37;;;;;;;6.70;4.00;;;24.10;46.80;;;;;;213420;1312;25528;-56
2021/12/05 04:05:44;;;;;;;7.00;4.50;;;24.10;46.60;;;;;;214048;1312;22555;-55
2021/12/05 04:10:53;;;;;;;6.00;4.00;;;24.10;46.40;;;;;;213473;1313;22688;-57
2021/12/05 04:16:06;;;;;;;7.20;4.40;;;24.10;46.40;;;;;;214230;1312;22576;-54
2021/12/05 04:21:29;;;;;;;6.70;4.20;;;24.10;46.40;;;;;;214199;1312;22637;-56
2021/12/05 04:26:53;;;;;;;6.50;4.30;;;24.00;46.60;;;;;;214249;1315;24727;-56
2021/12/05 04:32:14;;;;;;;7.30;4.40;;;24.00;46.60;;;;;;214015;1313;25740;-53
2021/12/05 04:37:45;;;;;;;6.10;4.00;;;24.10;46.40;;;;;;214125;1312;22563;-53
2021/12/05 04:43:46;;;;;;;6.10;4.00;;;24.00;46.60;;;;;;214082;1313;22843;-56
2021/12/05 04:49:23;;;;;;;6.80;4.20;;;24.00;46.80;;;;;;213844;1315;25418;-56
2021/12/05 04:55:00;;;;;;;5.80;4.00;;;24.00;46.90;;;;;;214242;1312;25338;-55
2021/12/05 05:00:30;;;;;;;5.80;4.10;;;24.10;46.70;;;;;;214299;1313;24250;-55
2021/12/05 05:05:44;;;;;;;5.70;3.70;;;24.30;46.10;;;;;;214172;1315;24279;-54
2021/12/05 05:10:59;;;;;;;;;;;24.30;46.00;;;;;;214197;1312;24247;-53
2021/12/05 05:16:34;;;;;;;6.40;3.80;;;24.10;46.20;;;;;;214202;1312;24333;-56
2021/12/05 05:21:51;;;;;;;6.80;3.90;;;23.90;46.60;;;;;;214252;1313;23099;-56
2021/12/05 05:50:27;;;;;;;5.40;3.60;;;23.10;48.00;;;;;;214213;1312;22577;-54
2021/12/05 05:55:47;;;;;;;6.20;3.70;;;23.00;48.20;;;;;;213470;1317;22654;-55
2021/12/05 06:01:08;;;;;;;5.90;3.60;;;22.90;48.30;;;;;;214146;1315;25112;-55
2021/12/05 06:06:30;;;;;;;6.90;4.10;;;22.90;48.50;;;;;;213538;1317;22581;-55
2021/12/05 06:11:52;;;;;;;6.50;3.70;;;22.80;48.70;;;;;;214207;1312;22559;-53
2021/12/05 06:16:58;;;;;;;6.10;3.80;;;22.70;48.90;;;;;;214052;1318;25657;-55
2021/12/05 06:22:19;;;;;;;6.10;3.70;;;22.70;49.00;;;;;;214278;1312;25643;-53
2021/12/05 06:27:26;;;;;;;6.70;4.10;;;22.60;49.00;;;;;;213760;1313;25431;-52
2021/12/05 06:49:01;;;;;;;6.50;3.20;;;22.90;48.60;;;;;;214231;1315;22640;-56
2021/12/05 06:54:37;;;;;;;5.00;3.20;;;23.20;47.90;;;;;;214248;1313;24290;-54
2021/12/05 06:59:54;;;;;;;6.10;4.10;;;23.50;47.40;;;;;;214051;1315;24279;-55
2021/12/05 07:05:58;;;;;;;;;;;;;;;;;;;;;
2021/12/05 07:11:14;;;;;;;6.30;3.60;;;23.70;46.80;;;;;;213712;1312;24251;-54
2021/12/05 07:17:04;;;;;;;6.40;3.60;;;23.80;46.50;;;;;;213864;1313;24286;-54
2021/12/05 07:22:43;;;;;;;5.20;3.20;;;23.80;46.30;;;;;;214191;1312;25073;-54
2021/12/05 07:45:27;;;;;;;6.00;3.90;;;23.80;47.10;;;;;;214001;1315;22644;-53
2021/12/05 07:51:11;;;;;;;4.50;3.30;;;23.80;46.70;;;;;;214163;1312;23112;-55
2021/12/05 07:56:52;;;;;;;6.80;4.00;;;23.80;46.70;;;;;;210637;1310;4669496;-56
2021/12/05 08:19:56;;;;;;;5.60;3.70;;;23.90;46.70;;;;;;212395;1319;25730;-53
2021/12/05 08:25:21;;;;;;;8.10;3.70;;;23.90;46.60;;;;;;213517;1313;22626;-55
2021/12/05 08:30:34;;;;;;;6.10;3.40;;;24.00;46.50;;;;;;213526;1312;23573;-55
2021/12/05 10:01:38;;;;;;;;;;;;;;;;;;;;;
2021/12/05 10:06:49;;;;;;;6.30;3.80;;;24.20;46.70;;;;;;214364;1310;24350;-55
2021/12/05 10:33:58;;;;;;;13.00;4.40;;;23.90;48.80;;;;;;214141;1313;24250;-55
2021/12/05 10:39:10;;;;;;;6.40;3.80;;;23.70;49.00;;;;;;214192;1312;25010;-53
2021/12/05 10:44:18;;;;;;;10.00;4.30;;;23.50;49.60;;;;;;213733;1312;22573;-52
2021/12/05 10:49:25;;;;;;;9.50;5.00;;;23.50;50.10;;;;;;213923;1312;24445;-55
2021/12/05 10:54:32;;;;;;;11.50;3.90;;;23.30;50.80;;;;;;213964;1312;22752;-54
2021/12/05 10:59:40;;;;;;;7.30;4.60;;;23.20;51.20;;;;;;213839;1312;22758;-53
2021/12/05 11:04:50;;;;;;;6.70;4.50;;;23.10;51.40;;;;;;213487;1312;25427;-53
2021/12/05 11:09:59;;;;;;;7.90;4.60;;;23.00;51.20;;;;;;213474;1312;22913;-52
2021/12/05 11:15:09;;;;;;;9.00;4.30;;;22.90;52.60;;;;;;213899;1312;25520;-51
2021/12/05 11:20:28;;;;;;;10.70;4.90;;;22.80;52.10;;;;;;213916;1312;25541;-52
2021/12/05 11:25:38;;;;;;;8.50;5.40;;;22.80;52.10;;;;;;214134;1312;22581;-52
2021/12/05 11:31:02;;;;;;;10.90;5.50;;;22.80;52.00;;;;;;213267;1312;24250;-50
2021/12/05 11:36:32;;;;;;;17.60;5.80;;;22.70;52.00;;;;;;213594;1312;22617;-53
2021/12/05 11:41:42;;;;;;;15.10;6.70;;;22.60;52.10;;;;;;213868;1312;22600;-54
2021/12/05 11:46:47;;;;;;;16.50;6.70;;;22.60;51.70;;;;;;213772;1312;26518;-53
2021/12/05 11:51:57;;;;;;;16.70;6.80;;;22.60;51.70;;;;;;213890;1312;25515;-54
2021/12/05 11:57:15;;;;;;;15.10;7.00;;;22.50;52.10;;;;;;213463;1312;25256;-54
2021/12/05 12:02:25;;;;;;;14.00;8.00;;;22.40;51.70;;;;;;213442;1312;22564;-56
2021/12/05 12:07:34;;;;;;;14.50;6.90;;;22.40;51.80;;;;;;213503;1312;22581;-56
2021/12/05 12:12:41;;;;;;;13.50;7.80;;;22.50;51.80;;;;;;213665;1312;22623;-53
2021/12/05 12:17:47;;;;;;;28.30;8.60;;;22.40;51.60;;;;;;213755;1312;22553;-56
2021/12/05 12:23:05;;;;;;;20.00;9.60;;;22.30;51.90;;;;;;213651;1312;22729;-52
2021/12/05 12:28:22;;;;;;;18.40;7.90;;;22.30;51.80;;;;;;213912;1312;22617;-54
2021/12/05 12:33:31;;;;;;;33.50;9.20;;;22.40;51.90;;;;;;213424;1316;22663;-53
2021/12/05 12:38:47;;;;;;;19.90;9.10;;;22.90;50.20;;;;;;213909;1313;25425;-55
2021/12/05 12:44:07;;;;;;;18.20;8.90;;;23.10;50.00;;;;;;213705;1312;22580;-52
2021/12/05 12:49:15;;;;;;;18.70;9.60;;;23.30;49.20;;;;;;213888;1313;22718;-54
2021/12/05 12:54:35;;;;;;;23.50;9.90;;;23.40;48.80;;;;;;213312;1312;22730;-54
2021/12/05 12:59:56;;;;;;;25.20;10.10;;;23.50;48.50;;;;;;213933;1311;25597;-53
2021/12/05 13:05:18;;;;;;;;;;;23.60;48.50;;;;;;213382;1312;24403;-52
2021/12/05 13:10:45;;;;;;;22.60;10.60;;;23.60;48.30;;;;;;213512;1312;22645;-52
2021/12/05 13:15:59;;;;;;;22.80;11.00;;;23.60;56.30;;;;;;213820;1312;24332;-54
2021/12/05 13:21:26;;;;;;;20.80;10.60;;;23.70;47.90;;;;;;213720;1312;25547;-53
2021/12/05 13:27:03;;;;;;;21.90;11.70;;;23.70;48.10;;;;;;213825;1312;22581;-54
2021/12/05 13:32:22;;;;;;;20.70;10.20;;;23.70;48.10;;;;;;213864;1312;22661;-51
2021/12/05 13:37:32;;;;;;;24.20;11.80;;;23.60;48.30;;;;;;213687;1312;25595;-51
2021/12/05 13:42:36;;;;;;;22.40;12.50;;;23.50;47.80;;;;;;217908;1312;25245;-53
2021/12/05 13:47:45;;;;;;;26.30;11.60;;;23.50;47.80;;;;;;214441;1312;22617;-51
2021/12/05 13:52:56;;;;;;;20.20;12.10;;;23.50;47.70;;;;;;214269;1312;25561;-50
2021/12/05 13:58:18;;;;;;;19.50;11.60;;;23.50;47.60;;;;;;214386;1311;22570;-51
2021/12/05 14:03:55;;;;;;;20.90;11.40;;;23.50;47.70;;;;;;214202;1312;22708;-53
2021/12/05 14:09:16;;;;;;;19.90;11.70;;;23.50;47.60;;;;;;214308;1312;22606;-54
2021/12/05 14:14:29;;;;;;;;;;;23.50;47.50;;;;;;214377;1310;26056;-56
2021/12/05 14:19:39;;;;;;;21.40;11.30;;;23.50;47.40;;;;;;214251;1310;24250;-51
2021/12/05 14:24:46;;;;;;;17.90;11.00;;;23.60;47.60;;;;;;214400;1309;22675;-51
2021/12/05 14:29:51;;;;;;;18.20;11.10;;;23.60;47.10;;;;;;214368;1307;24284;-52
2021/12/05 14:35:03;;;;;;;17.70;11.90;;;23.70;47.00;;;;;;214334;1309;25309;-51
2021/12/05 14:40:17;;;;;;;19.00;12.50;;;23.70;46.90;;;;;;214278;1309;25560;-53
2021/12/05 14:45:27;;;;;;;19.80;12.80;;;23.70;47.20;;;;;;214572;1309;22575;-52
2021/12/05 14:50:40;;;;;;;18.30;11.80;;;23.60;46.80;;;;;;214308;1309;22623;-52
2021/12/05 14:55:43;;;;;;;16.30;11.30;;;23.70;47.20;;;;;;214355;1309;22704;-52
2021/12/05 15:00:55;;;;;;;17.20;12.00;;;23.70;46.80;;;;;;214343;1309;22603;-54
2021/12/05 15:06:04;;;;;;;21.30;12.50;;;23.70;46.80;;;;;;214393;1309;25529;-52
2021/12/05 15:11:09;;;;;;;21.70;12.30;;;23.70;46.80;;;;;;214383;1309;25651;-52
2021/12/05 15:16:14;;;;;;;18.40;12.90;;;23.60;47.10;;;;;;214404;1309;22571;-50
2021/12/05 15:21:18;;;;;;;17.70;12.30;;;23.70;46.80;;;;;;214425;1309;22596;-53
2021/12/05 15:26:32;;;;;;;17.20;12.30;;;23.70;46.60;;;;;;214401;1313;22692;-52
2021/12/05 15:31:52;;;;;;;19.10;13.20;;;23.60;47.00;;;;;;214418;1309;22720;-52
2021/12/05 15:37:11;;;;;;;16.50;11.90;;;23.60;46.60;;;;;;214343;1309;25547;-49
2021/12/05 15:42:17;;;;;;;19.70;11.50;;;23.70;46.50;;;;;;214356;1307;22551;-51
2021/12/05 15:47:32;;;;;;;16.40;12.00;;;23.70;46.30;;;;;;214409;1307;22997;-55
2021/12/05 15:52:50;;;;;;;16.60;12.20;;;23.80;46.30;;;;;;214263;1309;25323;-53
2021/12/05 15:58:11;;;;;;;19.30;12.60;;;23.80;46.20;;;;;;214124;1309;237088;-53
2021/12/05 16:03:25;;;;;;;17.00;11.80;;;23.80;46.00;;;;;;214331;1309;25480;-52
2021/12/05 16:08:32;;;;;;;17.80;11.90;;;23.80;46.40;;;;;;214328;1308;24280;-52
2021/12/05 16:13:41;;;;;;;17.90;12.00;;;23.80;46.10;;;;;;214365;1309;22571;-54
2021/12/05 16:18:51;;;;;;;18.30;11.80;;;23.80;46.10;;;;;;214277;1309;22648;-55
2021/12/05 16:24:04;;;;;;;16.50;12.00;;;23.80;46.10;;;;;;214281;1309;24254;-54
2021/12/05 16:29:16;;;;;;;17.10;11.60;;;23.80;46.10;;;;;;214338;1309;26674;-51
2021/12/05 16:34:27;;;;;;;17.60;12.20;;;23.70;45.70;;;;;;214284;1309;22641;-52
2021/12/05 16:39:55;;;;;;;16.60;11.10;;;23.80;46.10;;;;;;214329;1309;23138;-54
2021/12/05 16:45:02;;;;;;;22.40;11.90;;;23.80;46.00;;;;;;214320;1310;22567;-54
2021/12/05 16:50:13;;;;;;;16.30;11.50;;;23.80;45.90;;;;;;214381;1309;25355;-51
2021/12/05 16:55:27;;;;;;;18.00;11.10;;;23.80;46.20;;;;;;214383;1309;25482;-54
2021/12/05 17:00:37;;;;;;;17.10;11.20;;;23.80;46.60;;;;;;214309;1309;22576;-55
2021/12/05 17:05:44;;;;;;;14.40;10.30;;;23.80;45.80;;;;;;214360;1309;23017;-53
2021/12/05 17:10:51;;;;;;;15.70;11.20;;;23.90;45.70;;;;;;214140;1309;24309;-52
2021/12/05 17:16:21;;;;;;;15.40;10.90;;;23.90;45.60;;;;;;214234;1309;22600;-51
2021/12/05 17:21:28;;;;;;;15.30;10.60;;;23.90;45.60;;;;;;214323;1309;25833;-53
2021/12/05 17:26:39;;;;;;;14.60;10.50;;;23.90;45.50;;;;;;214295;1307;24379;-51
2021/12/05 17:31:52;;;;;;;15.20;10.60;;;23.90;45.50;;;;;;214519;1307;22580;-52
2021/12/05 17:37:02;;;;;;;16.00;11.10;;;23.90;45.60;;;;;;214398;1309;22636;-53
2021/12/05 17:42:17;;;;;;;14.60;10.10;;;23.90;45.80;;;;;;214409;1309;22669;-52
2021/12/05 17:47:26;;;;;;;12.40;9.90;;;23.90;45.50;;;;;;214563;1307;24278;-55
2021/12/05 17:52:31;;;;;;;15.90;10.00;;;23.90;45.60;;;;;;214464;1309;25457;-51
2021/12/05 18:07:50;;;;;;;13.40;9.60;;;23.80;45.50;;;;;;214521;1309;25516;-54
2021/12/05 18:12:58;;;;;;;12.50;9.60;;;23.90;45.80;;;;;;214491;1309;25659;-51
2021/12/05 18:18:24;;;;;;;13.00;8.90;;;23.90;45.30;;;;;;214550;1309;25484;-53
2021/12/05 18:23:28;;;;;;;13.30;8.80;;;23.90;45.70;;;;;;214504;1309;25643;-54
2021/12/05 18:28:35;;;;;;;13.20;9.30;;;23.90;45.50;;;;;;214407;1309;22577;-54
2021/12/05 18:33:38;;;;;;;13.80;8.90;;;23.90;45.30;;;;;;214536;1309;25739;-50
2021/12/05 18:38:43;;;;;;;13.80;9.70;;;23.90;45.20;;;;;;214346;1309;22674;-51
2021/12/05 18:43:51;;;;;;;10.30;8.70;;;23.90;45.10;;;;;;214322;1308;22672;-53
2021/12/05 18:48:55;;;;;;;12.30;8.90;;;24.00;45.10;;;;;;214377;1308;25373;-54
2021/12/05 18:54:02;;;;;;;11.60;8.70;;;24.00;45.00;;;;;;214423;1309;22643;-54
2021/12/05 18:59:12;;;;;;;11.20;8.60;;;24.00;45.00;;;;;;214298;1308;25371;-51
2021/12/05 19:04:33;;;;;;;12.80;9.30;;;23.90;45.80;;;;;;214357;1309;25349;-56
2021/12/05 19:15:06;;;;;;;10.60;8.10;;;23.70;45.40;;;;;;214361;1309;22585;-53
2021/12/05 19:20:14;;;;;;;13.50;8.90;;;23.60;45.50;;;;;;214148;1309;26806;-49
2021/12/05 19:25:21;;;;;;;12.60;8.60;;;23.50;45.60;;;;;;214322;1309;22697;-53
2021/12/05 19:30:38;;;;;;;13.10;8.50;;;23.40;45.80;;;;;;214358;1308;22566;-51
2021/12/05 19:35:42;;;;;;;18.20;9.30;;;23.20;46.40;;;;;;214338;1308;22669;-53
2021/12/05 19:41:00;;;;;;;16.40;8.90;;;23.10;46.80;;;;;;214313;1309;22745;-53
2021/12/05 19:46:19;;;;;;;15.30;8.90;;;23.00;47.30;;;;;;214345;1309;24369;-51
2021/12/05 19:51:28;;;;;;;15.00;9.30;;;22.90;47.40;;;;;;214297;1308;23871;-52
2021/12/05 19:56:32;;;;;;;15.20;8.10;;;22.80;47.90;;;;;;214325;1309;22806;-55
2021/12/05 20:01:53;;;;;;;17.80;9.40;;;22.70;49.40;;;;;;214237;1307;26532;-52
2021/12/05 20:06:57;;;;;;;17.60;8.90;;;22.80;49.40;;;;;;214163;1308;24278;-55
2021/12/05 20:12:12;;;;;;;16.20;9.20;;;22.70;49.90;;;;;;214150;1309;22608;-54
2021/12/05 20:17:20;;;;;;;23.10;9.20;;;22.60;50.00;;;;;;213968;1309;23955;-54
2021/12/05 20:22:27;;;;;;;16.80;9.30;;;22.60;49.80;;;;;;214104;1308;24350;-52
2021/12/05 20:27:33;;;;;;;17.10;8.80;;;22.40;50.30;;;;;;214057;1309;24091;-52
2021/12/05 20:32:47;;;;;;;18.80;9.20;;;22.40;50.70;;;;;;214387;1309;24329;-52
2021/12/05 20:38:08;;;;;;;14.10;8.60;;;22.40;50.40;;;;;;214378;1308;22645;-52
2021/12/05 20:43:22;;;;;;;14.60;8.50;;;22.30;50.80;;;;;;214147;1309;25388;-52
2021/12/05 20:48:37;;;;;;;17.00;8.50;;;22.30;51.60;;;;;;214087;1312;22558;-52
2021/12/05 20:53:51;;;;;;;15.90;9.30;;;22.10;51.30;;;;;;214236;1309;22843;-52
2021/12/05 20:59:08;;;;;;;14.60;8.40;;;22.20;51.40;;;;;;214357;1308;24388;-54
2021/12/05 21:04:13;;;;;;;13.60;8.60;;;22.20;51.10;;;;;;214452;1313;24323;-52
2021/12/05 21:09:21;;;;;;;14.10;9.20;;;22.20;50.80;;;;;;214361;1309;22727;-55
2021/12/05 21:14:25;;;;;;;17.10;9.80;;;22.60;50.10;;;;;;214407;1309;22571;-53
2021/12/05 21:19:29;;;;;;;16.10;8.80;;;22.90;49.10;;;;;;214245;1309;22566;-52
2021/12/05 21:24:34;;;;;;;18.60;9.20;;;23.10;48.60;;;;;;214264;1315;22655;-51
2021/12/05 21:29:38;;;;;;;16.20;9.30;;;23.30;48.20;;;;;;214345;1316;22572;-53
2021/12/05 21:34:56;;;;;;;15.20;9.00;;;23.50;47.70;;;;;;214484;1315;24319;-55
2021/12/05 21:40:00;;;;;;;13.30;8.80;;;23.70;47.30;;;;;;214386;1314;22559;-55
2021/12/05 21:45:05;;;;;;;14.70;9.10;;;23.70;47.30;;;;;;214560;1315;22592;-51
2021/12/05 21:50:17;;;;;;;16.50;9.70;;;23.80;47.40;;;;;;214449;1315;25568;-52
2021/12/05 21:55:24;;;;;;;14.10;9.60;;;23.80;47.10;;;;;;214464;1315;25521;-53
2021/12/05 22:00:31;;;;;;;16.00;10.10;;;23.80;47.10;;;;;;214301;1309;23958;-53
2021/12/05 22:05:36;;;;;;;14.60;9.90;;;23.70;47.10;;;;;;214395;1309;22561;-54
2021/12/05 22:10:40;;;;;;;14.00;9.40;;;23.60;47.10;;;;;;214331;1309;23208;-53
2021/12/05 22:15:47;;;;;;;16.40;8.60;;;23.30;47.80;;;;;;214343;1309;25380;-53
2021/12/05 22:21:15;;;;;;;11.80;8.60;;;23.10;48.50;;;;;;214286;1316;22643;-54
2021/12/05 22:26:21;;;;;;;16.10;9.70;;;23.20;48.00;;;;;;214349;1314;22685;-52
2021/12/05 22:31:26;;;;;;;15.30;8.70;;;23.60;48.60;;;;;;214475;1309;26721;-51
2021/12/05 22:36:32;;;;;;;14.90;9.90;;;23.80;48.00;;;;;;214345;1309;25403;-52
2021/12/05 22:41:41;;;;;;;14.40;9.40;;;23.90;48.00;;;;;;214285;1308;23038;-56
2021/12/05 22:46:47;;;;;;;16.30;9.80;;;23.90;48.30;;;;;;214204;1308;22688;-56
2021/12/05 22:51:55;;;;;;;14.80;10.00;;;23.90;47.90;;;;;;214170;1314;25532;-52
2021/12/05 22:57:01;;;;;;;17.50;9.60;;;24.00;48.00;;;;;;214125;1309;22694;-54
2021/12/05 23:02:06;;;;;;;19.30;10.20;;;24.10;47.70;;;;;;214531;1313;22727;-52
2021/12/05 23:07:11;;;;;;;12.70;8.40;;;24.20;47.30;;;;;;214365;1308;22757;-55
2021/12/05 23:12:23;;;;;;;13.70;9.40;;;24.20;47.30;;;;;;214246;1312;25328;-53
2021/12/05 23:17:30;;;;;;;13.80;9.10;;;24.00;48.40;;;;;;214471;1309;25256;-54
2021/12/05 23:22:38;;;;;;;13.20;9.30;;;23.70;48.40;;;;;;214658;1309;24250;-53
2021/12/05 23:27:42;;;;;;;14.10;9.20;;;23.40;49.40;;;;;;214776;1316;22591;-52
2021/12/05 23:32:54;;;;;;;14.60;9.20;;;23.20;49.50;;;;;;214604;1307;22593;-54
2021/12/05 23:38:01;;;;;;;14.70;9.30;;;23.20;49.70;;;;;;214314;1310;22654;-54
2021/12/05 23:43:06;;;;;;;16.00;8.90;;;23.10;50.40;;;;;;214193;1309;25454;-54
2021/12/05 23:48:15;;;;;;;17.10;9.10;;;22.80;51.60;;;;;;214101;1309;25335;-55
2021/12/05 23:53:25;;;;;;;13.30;8.90;;;22.70;51.40;;;;;;214284;1309;22678;-51
2021/12/05 23:58:33;;;;;;;13.60;9.40;;;22.60;51.50;;;;;;214109;1313;341660;-51
